Helena Regional Airport Helena US
ICAO: KHLN
IATA: HLN
Category: Medium
Scheduled Services: Yes

Elevation: 3877 ft
TransAlt. 18000 ft.

Airport Communications:
APP/DEP:119.5
ATIS:120.4
CTAF:118.3
GND:121.9
ARNG OPS:40.65
GREAT FALLS RDO:122.55
TWR:118.3
UNICOM:122.95

KHLN Zoom In..

If you have problems with the map follow the link
https://www.worldairports.se/pages/airport.php?
ICAO=KHLN

Runways:

(A) RW 05 length 4644 ft width 75 ft
---- / hdg 50

(B) RW 09 length 9000 ft width 150 ft
---- / hdg 87

(C) RW 16 length 2989 ft width 75 ft
---- / hdg 163

(D) RW 23 length 4644 ft width 75 ft
---- / hdg 230

(E) RW 27 length 9000 ft width 150 ft
ILS 110.10 / hdg 267

(F) RW 34 length 2989 ft width 75 ft
---- / hdg 343

Location; KHLN
Day. 08 / Time. 19.22 Zulu
* Altimeter: 29.90
* Temperature: -07° c. -19.4°f.
* Wind from: 280° Speed 08 kn.
Dewpoint: -10° c.
Visibility: 2 Statute Miles.
Clouds: Scattered 600 ft.
Clouds: Overcast 4400 ft.
Conditions: Light Snow.

KHLN 081922Z 28008KT 2SM -SN SCT006 OVC044 M07/M10 A2990 RMK AO2 P0004 T10721100 $


Wind From 280°
Speed 08 kn.

 
 
jpsmedia worldairports.se 2019   terms of use